Time;durP1;ratioP1;P1;durP2;ratioP2;P2;SDS_P1;SDS_P2;PMS_P1;PMS_P2;Temp;Humidity;BMP_temperature;BMP_pressure;BME280_temperature;BME280_humidity;BME280_pressure;Samples;Min_cycle;Max_cycle;Signal;HPM_P1;HPM_P2
2021/04/10 00:01:59;;;;;;;23.63;16.30;;;;;;;15.20;21.30;95278.63;5075931;28;20044;-46
2021/04/10 00:04:26;;;;;;;34.25;21.23;;;;;;;15.28;21.12;95280.56;5075849;28;20451;-55
2021/04/10 00:06:53;;;;;;;31.95;18.60;;;;;;;15.55;20.55;95279.75;5075988;28;20051;-44
2021/04/10 00:09:21;;;;;;;34.63;19.58;;;;;;;14.78;21.39;95272.53;5075836;28;20055;-48
2021/04/10 00:11:48;;;;;;;32.38;18.42;;;;;;;15.54;20.78;95272.16;5075652;28;20075;-46
2021/04/10 00:14:15;;;;;;;33.75;19.90;;;;;;;15.16;21.08;95272.38;5075513;28;20052;-47
2021/04/10 00:16:43;;;;;;;37.50;22.50;;;;;;;15.25;20.82;95267.97;5075778;28;20049;-46
2021/04/10 00:19:12;;;;;;;36.80;21.52;;;;;;;15.27;20.94;95263.19;5075594;28;20470;-48
2021/04/10 00:21:39;;;;;;;33.05;20.90;;;;;;;15.34;21.10;95270.69;5088066;28;20040;-48
2021/04/10 00:24:10;;;;;;;34.65;19.90;;;;;;;15.41;20.85;95263.97;5081348;28;20052;-44
2021/04/10 00:26:37;;;;;;;28.60;18.05;;;;;;;15.70;19.61;95266.31;5075681;28;20055;-47
2021/04/10 00:29:05;;;;;;;23.48;14.00;;;;;;;16.12;18.93;95266.19;5082623;28;20056;-45
2021/04/10 00:31:34;;;;;;;23.23;14.32;;;;;;;16.14;19.01;95264.03;5095806;28;20036;-46
2021/04/10 00:34:01;;;;;;;21.92;15.07;;;;;;;15.98;19.27;95259.09;5082082;28;20455;-46
2021/04/10 00:36:28;;;;;;;18.85;12.25;;;;;;;16.70;18.09;95257.44;5075437;28;20442;-48
2021/04/10 00:38:55;;;;;;;17.85;12.77;;;;;;;16.85;18.04;95257.03;5075491;28;20068;-46
2021/04/10 00:41:22;;;;;;;209.35;139.65;;;;;;;16.02;20.43;95257.44;5092212;28;20043;-49
2021/04/10 00:43:49;;;;;;;37.28;26.02;;;;;;;15.63;21.01;95262.53;5081715;28;20044;-45
2021/04/10 00:46:17;;;;;;;20.15;13.82;;;;;;;15.58;20.38;95254.66;5091798;28;20043;-47
2021/04/10 00:48:50;;;;;;;23.30;14.73;;;;;;;16.07;19.81;95255.75;5077823;28;20047;-48
2021/04/10 00:51:26;;;;;;;19.30;13.07;;;;;;;16.50;19.23;95251.56;5092955;28;20044;-48
2021/04/10 00:53:57;;;;;;;21.20;14.02;;;;;;;15.69;20.26;95245.53;5082091;28;20048;-49
2021/04/10 00:56:24;;;;;;;22.90;14.50;;;;;;;15.47;20.27;95245.44;5066741;28;20054;-46
2021/04/10 00:58:52;;;;;;;21.70;13.48;;;;;;;15.80;19.99;95238.94;5087535;28;20055;-48
2021/04/10 01:01:24;;;;;;;24.10;14.18;;;;;;;15.65;20.18;95241.91;5074080;28;20044;-47
2021/04/10 01:03:51;;;;;;;23.73;14.15;;;;;;;15.92;20.00;95241.84;5073520;28;20044;-46
2021/04/10 01:06:19;;;;;;;21.00;14.35;;;;;;;15.75;20.27;95244.31;5075111;28;20044;-45
2021/04/10 01:08:46;;;;;;;24.13;14.23;;;;;;;16.01;20.24;95245.31;5075222;28;20443;-47
2021/04/10 01:11:35;;;;;;;25.50;15.30;;;;;;;15.56;20.73;95241.00;5075060;28;20060;-48
2021/04/10 01:14:08;;;;;;;24.15;15.27;;;;;;;15.85;20.35;95243.31;5074629;28;20052;-48
2021/04/10 01:16:39;;;;;;;25.85;14.25;;;;;;;15.97;20.00;95252.28;5075274;28;20053;-46
2021/04/10 01:19:25;;;;;;;26.42;14.43;;;;;;;15.50;21.40;95239.56;5057517;28;20053;-47
2021/04/10 01:22:16;;;;;;;23.05;14.07;;;;;;;15.01;21.23;95244.47;5067910;28;20043;-45
2021/04/10 01:25:05;;;;;;;27.55;14.65;;;;;;;14.94;21.53;95245.94;5074769;28;20370;-46
2021/04/10 01:27:35;;;;;;;25.45;13.80;;;;;;;14.88;21.60;95255.00;5074170;28;20052;-46
2021/04/10 01:30:22;;;;;;;24.98;15.82;;;;;;;14.89;21.42;95246.03;5075005;28;20044;-52
2021/04/10 01:33:12;;;;;;;23.55;13.50;;;;;;;15.07;21.19;95258.31;5041055;28;20056;-49
2021/04/10 01:35:56;;;;;;;23.25;14.32;;;;;;;15.23;20.82;95251.69;5094977;28;20052;-44
2021/04/10 01:38:28;;;;;;;20.65;13.73;;;;;;;15.97;19.87;95247.00;5073733;28;20063;-48
2021/04/10 01:40:59;;;;;;;20.33;13.57;;;;;;;15.30;21.10;95246.78;5073837;28;20040;-47
2021/04/10 01:43:28;;;;;;;22.25;14.05;;;;;;;15.57;20.34;95250.47;5066844;28;20045;-48
2021/04/10 01:45:56;;;;;;;17.33;12.30;;;;;;;15.76;20.05;95243.25;5054053;28;20056;-46
2021/04/10 01:48:24;;;;;;;19.40;12.73;;;;;;;15.83;20.11;95248.88;5063604;28;20056;-49
2021/04/10 01:50:53;;;;;;;21.40;13.52;;;;;;;15.53;20.05;95255.56;5050544;28;20044;-48
2021/04/10 01:53:21;;;;;;;19.23;13.25;;;;;;;15.33;20.53;95245.44;5041324;28;20045;-47
2021/04/10 01:55:49;;;;;;;19.55;12.82;;;;;;;15.25;20.91;95243.50;5058544;28;20053;-46
2021/04/10 01:58:21;;;;;;;19.52;11.55;;;;;;;15.40;20.41;95241.34;5057454;28;20124;-47
2021/04/10 02:00:52;;;;;;;14.23;10.35;;;;;;;15.76;20.02;95237.97;5057842;28;20049;-46
2021/04/10 02:03:20;;;;;;;14.98;9.93;;;;;;;15.70;19.93;95239.94;5056872;28;20056;-48
2021/04/10 02:05:50;;;;;;;14.50;9.65;;;;;;;15.82;19.15;95236.00;5040843;28;20044;-46
2021/04/10 02:08:35;;;;;;;15.63;9.63;;;;;;;15.51;19.20;95241.13;5059268;28;20056;-46
2021/04/10 02:11:14;;;;;;;16.35;10.43;;;;;;;15.61;19.66;95240.94;5057350;28;20052;-49
2021/04/10 02:13:56;;;;;;;21.13;12.85;;;;;;;15.71;19.42;95235.47;5066346;28;20064;-45
2021/04/10 02:16:31;;;;;;;27.17;17.02;;;;;;;15.09;21.05;95232.47;5077174;28;20055;-46
2021/04/10 02:19:06;;;;;;;33.70;20.08;;;;;;;15.09;21.00;95235.09;5077248;28;20044;-48
2021/04/10 02:21:35;;;;;;;30.60;18.95;;;;;;;14.84;21.06;95236.38;5075890;28;20055;-46
2021/04/10 02:24:02;;;;;;;28.80;16.98;;;;;;;14.99;20.60;95240.56;5069573;28;20478;-47
2021/04/10 02:26:41;;;;;;;26.70;16.77;;;;;;;15.39;20.52;95250.31;5076989;28;20048;-48
2021/04/10 02:29:13;;;;;;;22.30;15.23;;;;;;;15.39;20.30;95218.72;5076888;28;20055;-48
2021/04/10 02:31:54;;;;;;;25.05;15.27;;;;;;;15.45;20.66;95237.03;5076419;28;20051;-47
2021/04/10 02:34:26;;;;;;;29.83;17.30;;;;;;;15.07;21.33;95234.59;5056917;28;20049;-45
2021/04/10 02:36:58;;;;;;;30.10;17.67;;;;;;;15.35;20.75;95233.56;5057919;28;20048;-45
2021/04/10 02:39:27;;;;;;;33.03;16.42;;;;;;;15.17;21.21;95231.78;5073401;28;20375;-48
2021/04/10 02:41:59;;;;;;;32.53;17.33;;;;;;;14.66;21.88;95237.22;5078309;28;20053;-46
2021/04/10 02:44:39;;;;;;;28.50;16.83;;;;;;;15.20;20.96;95233.84;5072366;28;20056;-46
2021/04/10 02:47:08;;;;;;;26.00;15.05;;;;;;;15.49;20.71;95230.09;5063281;28;20052;-46
2021/04/10 02:49:40;;;;;;;34.13;15.95;;;;;;;15.14;21.14;95232.38;5097635;28;20058;-46
2021/04/10 02:52:08;;;;;;;20.90;12.95;;;;;;;15.38;20.43;95238.22;5061283;28;20036;-47
2021/04/10 02:54:43;;;;;;;31.13;16.05;;;;;;;15.19;21.25;95237.56;5059738;28;20044;-48
2021/04/10 02:57:13;;;;;;;24.88;13.82;;;;;;;15.03;21.24;95231.00;5076498;28;20051;-47
2021/04/10 02:59:45;;;;;;;30.42;16.35;;;;;;;14.62;22.04;95226.50;5060071;28;20111;-45
2021/04/10 03:02:15;;;;;;;23.63;15.77;;;;;;;14.93;21.44;95233.84;5059547;28;20040;-49
2021/04/10 03:04:44;;;;;;;23.58;14.32;;;;;;;14.87;21.13;95227.91;5059345;28;20079;-45
2021/04/10 03:07:13;;;;;;;24.00;13.55;;;;;;;14.88;21.41;95231.31;5059762;28;20052;-46
2021/04/10 03:09:43;;;;;;;25.88;15.75;;;;;;;14.78;22.27;95233.03;5059518;28;20049;-46
2021/04/10 03:12:16;;;;;;;20.30;13.48;;;;;;;14.82;21.36;95231.38;5058936;28;20056;-46
2021/04/10 03:14:45;;;;;;;23.43;12.80;;;;;;;15.07;20.94;95237.25;5077152;28;20360;-45
2021/04/10 03:17:18;;;;;;;28.58;15.80;;;;;;;14.69;21.91;95242.69;5076943;28;20048;-50
2021/04/10 03:19:47;;;;;;;21.73;14.55;;;;;;;14.44;22.05;95243.13;5059163;28;20056;-47
2021/04/10 03:22:15;;;;;;;21.20;14.75;;;;;;;15.11;21.51;95248.78;5075419;28;20044;-51
2021/04/10 03:24:45;;;;;;;28.42;15.27;;;;;;;14.90;21.80;95247.59;5043130;28;20053;-46
2021/04/10 03:27:12;;;;;;;23.35;15.10;;;;;;;14.34;22.39;95254.56;5059168;28;20048;-49
2021/04/10 03:29:40;;;;;;;24.05;15.55;;;;;;;15.07;21.72;95258.31;5059349;28;20044;-48
2021/04/10 03:32:09;;;;;;;20.75;13.45;;;;;;;15.49;20.81;95253.81;5059044;28;20048;-48
2021/04/10 03:34:40;;;;;;;27.23;16.42;;;;;;;14.79;22.25;95252.25;5076634;28;20052;-46
2021/04/10 03:37:09;;;;;;;23.77;15.02;;;;;;;14.55;22.20;95262.91;5042989;28;20044;-46
2021/04/10 03:39:39;;;;;;;37.42;17.35;;;;;;;14.34;22.54;95256.41;5042807;28;20048;-46
2021/04/10 03:42:09;;;;;;;28.67;16.20;;;;;;;14.27;22.47;95263.88;5042398;28;20362;-48
2021/04/10 03:44:36;;;;;;;25.40;15.23;;;;;;;14.48;22.13;95259.88;5089813;28;20040;-45
2021/04/10 03:47:05;;;;;;;24.45;15.98;;;;;;;14.63;21.93;95257.00;5058698;28;20055;-47
2021/04/10 03:49:34;;;;;;;24.95;15.85;;;;;;;14.67;21.85;95259.84;5072132;28;20052;-49
2021/04/10 03:52:04;;;;;;;27.48;17.33;;;;;;;14.88;21.72;95257.63;5079696;28;20489;-46
2021/04/10 03:54:31;;;;;;;22.83;15.20;;;;;;;14.91;21.32;95259.69;5058068;28;20056;-45
2021/04/10 03:56:58;;;;;;;29.70;17.38;;;;;;;14.71;22.55;95261.59;5058602;28;20048;-46
2021/04/10 03:59:28;;;;;;;34.53;21.33;;;;;;;14.53;22.07;95265.06;5074931;28;20336;-46
2021/04/10 04:01:57;;;;;;;37.47;23.40;;;;;;;14.50;22.35;95260.38;5058257;28;20079;-45
2021/04/10 04:04:29;;;;;;;38.30;23.13;;;;;;;13.74;23.72;95261.50;5080394;28;20439;-46
2021/04/10 04:06:56;;;;;;;36.33;19.55;;;;;;;14.32;22.83;95264.59;5096185;28;20434;-48
2021/04/10 04:09:23;;;;;;;34.20;20.40;;;;;;;14.58;22.13;95262.38;5096170;28;20051;-48
2021/04/10 04:11:52;;;;;;;29.63;18.63;;;;;;;13.83;23.38;95268.47;5096065;28;20044;-47
2021/04/10 04:14:19;;;;;;;27.17;16.92;;;;;;;13.80;23.31;95263.00;5077534;28;20048;-48
2021/04/10 04:16:47;;;;;;;24.85;17.10;;;;;;;13.97;23.16;95278.25;5076841;28;20044;-47
2021/04/10 04:19:15;;;;;;;21.35;14.23;;;;;;;14.90;21.43;95269.44;5075393;28;20044;-45
2021/04/10 04:21:43;;;;;;;23.48;14.15;;;;;;;14.77;21.22;95270.97;5088365;28;20044;-46
2021/04/10 04:24:10;;;;;;;23.42;14.50;;;;;;;15.14;20.77;95265.84;5095930;28;20044;-50
2021/04/10 04:26:37;;;;;;;22.80;14.05;;;;;;;15.04;20.87;95264.94;5086636;28;20051;-45
2021/04/10 04:29:04;;;;;;;21.52;15.02;;;;;;;14.94;22.02;95274.91;5075437;28;20048;-49
2021/04/10 04:31:31;;;;;;;27.85;16.88;;;;;;;15.25;21.08;95265.34;5081832;28;20051;-47
2021/04/10 04:33:59;;;;;;;24.88;14.95;;;;;;;14.63;22.65;95270.16;5096062;28;20044;-47
2021/04/10 04:36:26;;;;;;;26.15;15.43;;;;;;;14.38;22.60;95267.94;5091655;28;20052;-47
2021/04/10 04:38:53;;;;;;;25.38;15.40;;;;;;;15.02;22.33;95266.31;5075549;28;20453;-46
2021/04/10 04:41:21;;;;;;;26.08;15.77;;;;;;;15.31;22.44;95279.97;5074802;28;20052;-48
2021/04/10 04:43:48;;;;;;;29.08;16.15;;;;;;;15.11;22.30;95268.00;5075419;28;20056;-48
2021/04/10 04:46:15;;;;;;;30.90;17.25;;;;;;;15.41;22.39;95269.25;5074555;28;20056;-45
2021/04/10 04:48:43;;;;;;;24.30;15.57;;;;;;;15.70;21.17;95271.59;5089588;28;20044;-45
2021/04/10 04:51:10;;;;;;;27.33;15.73;;;;;;;15.54;20.98;95262.38;5086494;28;20037;-45
2021/04/10 04:53:37;;;;;;;27.02;15.38;;;;;;;15.99;21.41;95268.56;5075057;28;20362;-47
2021/04/10 04:56:05;;;;;;;19.77;12.50;;;;;;;16.24;19.44;95277.00;5083661;28;20082;-46
2021/04/10 04:58:32;;;;;;;19.10;11.77;;;;;;;16.33;19.57;95272.53;5076793;28;20044;-47
2021/04/10 05:00:59;;;;;;;25.23;14.30;;;;;;;16.80;19.82;95275.66;5075093;28;20477;-49
2021/04/10 05:03:26;;;;;;;25.33;14.88;;;;;;;17.21;19.22;95273.53;5079506;28;20055;-49
2021/04/10 05:05:53;;;;;;;23.25;13.00;;;;;;;16.91;19.53;95279.59;5095285;28;20055;-48
2021/04/10 05:08:20;;;;;;;19.75;12.55;;;;;;;17.00;18.80;95280.44;5078733;28;20044;-47
2021/04/10 05:10:48;;;;;;;18.85;12.65;;;;;;;17.48;18.74;95284.97;5074082;28;20052;-48
2021/04/10 05:13:15;;;;;;;23.05;13.85;;;;;;;17.51;18.70;95285.13;5075362;28;20055;-48
2021/04/10 05:15:42;;;;;;;20.38;13.52;;;;;;;17.57;18.81;95281.25;5075326;28;20052;-45
2021/04/10 05:18:09;;;;;;;24.90;14.05;;;;;;;17.84;18.84;95288.16;5073782;28;20056;-50
2021/04/10 05:20:36;;;;;;;19.80;13.95;;;;;;;17.49;19.15;95291.81;5078986;28;20058;-48
2021/04/10 05:23:03;;;;;;;23.75;14.45;;;;;;;17.82;18.73;95285.06;5095106;28;20393;-47
2021/04/10 05:25:31;;;;;;;20.50;14.20;;;;;;;17.84;18.69;95282.88;5095226;28;20446;-45
2021/04/10 05:27:58;;;;;;;19.63;13.50;;;;;;;17.55;18.34;95288.69;5084897;28;20471;-48
2021/04/10 05:30:25;;;;;;;24.05;12.23;;;;;;;18.29;18.39;95292.41;5060523;28;20045;-46
2021/04/10 05:32:53;;;;;;;16.05;11.20;;;;;;;18.10;18.39;95287.41;5078900;28;20037;-48
2021/04/10 05:35:20;;;;;;;19.08;11.60;;;;;;;18.22;18.55;95287.59;5078992;28;20052;-48
2021/04/10 05:37:47;;;;;;;19.95;12.10;;;;;;;18.56;19.38;95286.78;5078470;28;20048;-48
2021/04/10 05:40:14;;;;;;;19.42;13.15;;;;;;;18.26;18.70;95293.81;5079090;28;20063;-50
2021/04/10 05:42:41;;;;;;;19.92;13.95;;;;;;;18.68;18.00;95288.78;5078662;28;20462;-47
2021/04/10 05:45:09;;;;;;;26.35;12.38;;;;;;;18.44;18.08;95292.69;5061071;28;20048;-51
2021/04/10 05:47:36;;;;;;;18.88;12.95;;;;;;;18.77;18.55;95289.56;5078455;28;20048;-45
2021/04/10 05:50:04;;;;;;;22.85;13.88;;;;;;;18.74;18.04;95292.84;5083792;28;20048;-42
2021/04/10 05:52:32;;;;;;;21.80;14.93;;;;;;;18.72;18.14;95289.72;5078432;28;20048;-43
2021/04/10 05:54:59;;;;;;;21.92;13.68;;;;;;;19.02;17.72;95291.38;5082774;28;20055;-49
2021/04/10 05:57:26;;;;;;;20.63;14.40;;;;;;;19.48;18.01;95289.75;5090979;28;20040;-49
2021/04/10 05:59:53;;;;;;;26.20;14.57;;;;;;;19.59;16.79;95277.75;5090517;28;20050;-48
2021/04/10 06:02:20;;;;;;;21.27;14.32;;;;;;;19.29;17.00;95281.44;5098380;28;20051;-45
2021/04/10 06:04:47;;;;;;;20.85;14.32;;;;;;;19.84;16.53;95281.34;5098104;28;20044;-55
2021/04/10 06:07:15;;;;;;;17.98;13.73;;;;;;;19.68;16.41;95278.44;5097525;28;20051;-51
2021/04/10 06:09:42;;;;;;;19.83;14.20;;;;;;;19.71;16.21;95277.03;5080693;28;20048;-43
2021/04/10 06:12:09;;;;;;;19.05;14.18;;;;;;;19.45;16.54;95279.78;5098331;28;20044;-44
2021/04/10 06:14:36;;;;;;;21.17;14.63;;;;;;;19.68;17.33;95285.63;5098488;28;20044;-45
2021/04/10 06:17:04;;;;;;;22.20;17.52;;;;;;;19.76;17.27;95284.03;5098187;28;20055;-44
2021/04/10 06:19:31;;;;;;;23.45;16.17;;;;;;;20.45;16.82;95283.53;5080744;28;20039;-48
2021/04/10 06:21:58;;;;;;;28.90;17.83;;;;;;;19.91;17.37;95283.47;5097768;28;20040;-44
2021/04/10 06:24:25;;;;;;;28.60;19.15;;;;;;;20.06;16.84;95288.22;5098276;28;20469;-45
2021/04/10 06:26:52;;;;;;;20.10;14.50;;;;;;;20.20;16.15;95287.94;5096220;28;20044;-44
2021/04/10 06:29:20;;;;;;;21.77;16.70;;;;;;;20.63;16.27;95290.25;5077979;28;20052;-45
2021/04/10 06:31:48;;;;;;;29.48;17.15;;;;;;;20.29;17.27;95292.06;5077543;28;20365;-44
2021/04/10 06:34:15;;;;;;;21.10;14.77;;;;;;;20.51;16.76;95300.81;5087921;28;20051;-46
2021/04/10 06:36:42;;;;;;;24.77;16.13;;;;;;;20.70;16.77;95295.81;5098101;28;20055;-44
2021/04/10 06:39:09;;;;;;;22.75;16.27;;;;;;;21.07;16.78;95294.00;5095909;28;20044;-42
2021/04/10 06:41:39;;;;;;;19.92;15.20;;;;;;;20.70;15.88;95295.81;5097688;28;20451;-44
2021/04/10 06:44:07;;;;;;;24.17;16.27;;;;;;;20.94;16.30;95293.22;5097912;28;20058;-43
2021/04/10 06:46:35;;;;;;;22.80;15.27;;;;;;;21.02;16.41;95290.78;5081206;28;20469;-47
2021/04/10 06:49:02;;;;;;;24.95;16.83;;;;;;;21.32;15.96;95294.84;5060005;28;20051;-46
2021/04/10 06:51:30;;;;;;;23.38;16.60;;;;;;;21.23;16.73;95291.50;5070927;28;20055;-46
2021/04/10 06:53:57;;;;;;;22.35;16.13;;;;;;;21.30;15.05;95291.75;5097793;28;20445;-44
2021/04/10 06:56:27;;;;;;;22.30;16.20;;;;;;;21.33;15.71;95288.41;5077593;28;20043;-45
2021/04/10 06:59:09;;;;;;;21.48;14.57;;;;;;;21.82;15.39;95280.41;5086497;28;20048;-45
2021/04/10 07:01:37;;;;;;;19.38;13.85;;;;;;;22.25;14.82;95276.38;5097486;28;20366;-46
2021/04/10 07:04:05;;;;;;;25.80;14.52;;;;;;;22.58;14.53;95282.22;5097481;28;20048;-45
2021/04/10 07:06:33;;;;;;;23.73;14.45;;;;;;;21.71;14.74;95279.34;5076393;28;20052;-44
2021/04/10 07:09:00;;;;;;;19.60;15.10;;;;;;;22.03;14.74;95270.41;5059756;28;20051;-44
2021/04/10 07:11:27;;;;;;;24.73;17.65;;;;;;;22.74;14.39;95276.94;5077069;28;20052;-44
2021/04/10 07:13:54;;;;;;;23.63;15.95;;;;;;;22.42;14.31;95274.19;5082139;28;20052;-49
2021/04/10 07:16:22;;;;;;;25.67;17.70;;;;;;;22.15;15.25;95282.94;5096212;28;20055;-46
2021/04/10 07:18:50;;;;;;;24.35;18.40;;;;;;;21.31;15.16;95282.66;5079412;28;20040;-44
2021/04/10 07:21:20;;;;;;;28.75;19.77;;;;;;;21.93;15.47;95281.53;5087141;28;20045;-44
2021/04/10 07:23:55;;;;;;;25.83;18.83;;;;;;;22.23;14.55;95274.03;5076827;28;20079;-45
2021/04/10 07:26:57;;;;;;;32.25;19.20;;;;;;;22.98;14.22;95281.41;5089014;28;20040;-46
2021/04/10 07:29:31;;;;;;;28.08;17.92;;;;;;;23.12;13.87;95279.06;5076734;28;20336;-46
2021/04/10 07:31:59;;;;;;;25.40;18.05;;;;;;;23.39;13.76;95288.88;5081362;28;20047;-48
2021/04/10 07:34:28;;;;;;;23.40;15.95;;;;;;;22.62;12.95;95285.75;5096904;28;20048;-48
2021/04/10 07:37:02;;;;;;;21.88;15.57;;;;;;;22.88;13.77;95287.97;5091618;28;20732;-54
2021/04/10 07:39:29;;;;;;;24.80;17.52;;;;;;;23.44;14.65;95287.09;5076521;28;20048;-44
2021/04/10 07:42:06;;;;;;;31.77;21.58;;;;;;;23.56;13.73;95281.66;5058686;28;20056;-44
2021/04/10 07:44:51;;;;;;;23.13;14.82;;;;;;;23.90;13.15;95277.47;5075834;28;20355;-45
2021/04/10 07:47:18;;;;;;;18.00;12.65;;;;;;;23.65;12.11;95284.91;5046495;28;20386;-45
2021/04/10 07:49:45;;;;;;;16.60;11.55;;;;;;;23.88;11.97;95275.16;5075362;28;20045;-43
2021/04/10 07:52:12;;;;;;;26.13;12.85;;;;;;;23.98;13.00;95273.84;5093043;28;20048;-46
2021/04/10 07:54:43;;;;;;;20.08;12.45;;;;;;;24.10;12.35;95270.25;5096472;28;20051;-47
2021/04/10 07:57:11;;;;;;;18.77;12.45;;;;;;;24.12;12.64;95268.00;5089677;28;20049;-44
2021/04/10 07:59:50;;;;;;;14.88;11.40;;;;;;;24.79;13.50;95271.25;5078738;28;20052;-44
2021/04/10 08:02:18;;;;;;;14.75;11.15;;;;;;;24.16;11.85;95268.84;5096269;28;20040;-44
2021/04/10 08:05:03;;;;;;;18.05;12.93;;;;;;;24.57;12.80;95270.88;5096228;28;20044;-45
2021/04/10 08:07:31;;;;;;;24.80;15.45;;;;;;;24.99;13.13;95261.34;5087038;28;20052;-45
2021/04/10 08:10:08;;;;;;;20.02;14.15;;;;;;;24.76;11.91;95258.59;5075858;28;20347;-44
2021/04/10 08:12:39;;;;;;;19.50;14.50;;;;;;;25.15;13.53;95280.69;5075893;28;20041;-44
2021/04/10 08:15:08;;;;;;;20.88;11.85;;;;;;;25.43;11.51;95267.78;5075975;28;20044;-46
2021/04/10 08:17:43;;;;;;;16.85;11.23;;;;;;;24.79;11.03;95263.25;5075543;28;20040;-43
2021/04/10 08:20:27;;;;;;;19.48;11.95;;;;;;;25.34;11.98;95261.13;5076123;28;20446;-46
2021/04/10 08:23:19;;;;;;;16.70;11.40;;;;;;;25.23;11.78;95254.81;5096007;28;20048;-44
2021/04/10 08:25:46;;;;;;;19.98;11.95;;;;;;;25.22;11.69;95259.41;5095613;28;20052;-45
2021/04/10 08:28:14;;;;;;;17.15;12.00;;;;;;;25.33;11.40;95257.69;5081184;28;20040;-44
2021/04/10 08:30:42;;;;;;;17.00;11.95;;;;;;;25.36;12.78;95245.50;5075631;28;20356;-43
2021/04/10 08:33:09;;;;;;;18.75;11.88;;;;;;;25.71;11.54;95245.25;5075471;28;20495;-46
2021/04/10 08:35:38;;;;;;;17.38;12.55;;;;;;;26.18;11.06;95246.66;5081660;28;20078;-44
2021/04/10 08:38:06;;;;;;;16.92;11.65;;;;;;;26.16;11.06;95235.53;5082404;28;20367;-44
2021/04/10 08:40:35;;;;;;;18.80;11.85;;;;;;;26.34;10.90;95245.34;5057955;28;20048;-45
2021/04/10 08:43:03;;;;;;;15.40;11.57;;;;;;;25.61;11.17;95243.97;5057740;28;20044;-46
2021/04/10 08:45:32;;;;;;;19.13;12.35;;;;;;;25.96;11.25;95240.25;5057835;28;20048;-46
2021/04/10 08:48:08;;;;;;;17.27;11.25;;;;;;;26.07;11.64;95239.25;5082276;28;20051;-46
2021/04/10 08:50:37;;;;;;;14.25;10.95;;;;;;;26.00;11.88;95227.66;5091303;28;20047;-45
2021/04/10 08:53:08;;;;;;;15.05;11.07;;;;;;;26.09;11.04;95226.28;5075268;28;20073;-46
2021/04/10 08:55:39;;;;;;;13.55;10.73;;;;;;;26.25;11.62;95227.97;5057736;28;20059;-45
2021/04/10 08:58:28;;;;;;;15.77;11.20;;;;;;;26.32;11.62;95226.16;5075032;28;20044;-50
2021/04/10 09:01:01;;;;;;;12.23;10.18;;;;;;;26.80;10.98;95231.66;5075103;28;20048;-44
2021/04/10 09:03:46;;;;;;;16.00;10.88;;;;;;;26.64;10.88;95215.03;5087500;28;20059;-47
2021/04/10 09:06:15;;;;;;;13.93;9.43;;;;;;;26.43;10.72;95216.34;5095551;28;20043;-46
2021/04/10 09:08:42;;;;;;;12.35;9.55;;;;;;;26.69;11.09;95209.34;5078016;28;20071;-45
2021/04/10 09:11:19;;;;;;;17.92;9.52;;;;;;;27.25;11.61;95205.63;5075090;28;20052;-46
2021/04/10 09:13:48;;;;;;;17.13;10.45;;;;;;;27.22;10.81;95206.38;5075071;28;20465;-46
2021/04/10 09:16:31;;;;;;;15.43;10.93;;;;;;;26.84;11.04;95196.84;5094698;28;20044;-44
2021/04/10 09:19:19;;;;;;;14.65;10.32;;;;;;;27.17;10.80;95193.28;5075977;28;20048;-46
2021/04/10 09:21:52;;;;;;;11.48;8.85;;;;;;;27.44;10.51;95202.69;5088446;28;20059;-46
2021/04/10 09:24:19;;;;;;;11.80;8.95;;;;;;;27.67;11.53;95190.97;5095264;28;20450;-46
2021/04/10 09:26:59;;;;;;;11.70;8.15;;;;;;;27.67;11.20;95182.91;5094142;28;20051;-44
2021/04/10 09:29:48;;;;;;;15.15;9.00;;;;;;;27.48;10.19;95184.69;5074938;28;20044;-45
2021/04/10 09:32:42;;;;;;;12.30;9.13;;;;;;;27.85;10.28;95184.56;5064257;28;20379;-45
2021/04/10 09:35:19;;;;;;;14.77;9.80;;;;;;;27.45;10.78;95180.06;5065569;28;20489;-46
2021/04/10 09:37:49;;;;;;;17.63;9.77;;;;;;;27.85;10.41;95181.09;5074525;28;20048;-46
2021/04/10 09:40:22;;;;;;;13.32;9.40;;;;;;;27.53;9.68;95162.84;5081939;28;20059;-44
2021/04/10 09:42:54;;;;;;;12.50;8.63;;;;;;;27.50;11.32;95158.22;5094847;28;20044;-45
2021/04/10 09:45:25;;;;;;;12.13;8.18;;;;;;;27.53;9.72;95165.53;5076903;28;20055;-51
2021/04/10 09:47:56;;;;;;;13.55;7.55;;;;;;;27.97;11.05;95161.94;5077007;28;20054;-48
2021/04/10 09:50:39;;;;;;;11.75;8.27;;;;;;;28.17;10.68;95160.50;5092368;28;20040;-48
2021/04/10 09:53:09;;;;;;;13.02;8.43;;;;;;;28.52;8.93;95150.97;5093602;28;20047;-47
2021/04/10 09:55:40;;;;;;;;;;;;;;;28.21;9.68;95155.88;5077993;28;20055;-47
2021/04/10 09:58:12;;;;;;;10.02;7.63;;;;;;;28.47;8.86;95156.75;5083981;28;19912;-46
2021/04/10 10:00:43;;;;;;;9.02;7.53;;;;;;;27.84;10.50;95141.91;5090450;28;20052;-46
2021/04/10 10:03:14;;;;;;;12.23;7.85;;;;;;;27.59;9.34;95145.25;5094806;28;20480;-47
2021/04/10 10:05:51;;;;;;;9.80;7.60;;;;;;;27.92;9.64;95144.28;5094724;28;20044;-44
2021/04/10 10:08:20;;;;;;;12.40;7.35;;;;;;;27.87;10.43;95138.50;5082644;28;20044;-46
2021/04/10 10:10:53;;;;;;;14.60;7.78;;;;;;;28.43;9.25;95137.16;5074568;28;20378;-46
2021/04/10 10:13:25;;;;;;;11.20;8.20;;;;;;;28.51;9.72;95141.38;5075874;28;20037;-45
2021/04/10 10:15:53;;;;;;;12.30;7.28;;;;;;;28.22;9.30;95129.78;5096514;28;20052;-51
2021/04/10 10:18:27;;;;;;;10.20;7.35;;;;;;;27.91;9.17;95132.00;5096088;28;20477;-52
2021/04/10 10:21:07;;;;;;;9.60;7.20;;;;;;;27.94;8.79;95130.47;5091510;28;20049;-50
2021/04/10 10:23:47;;;;;;;11.23;6.57;;;;;;;28.29;10.77;95119.06;5077980;28;20455;-49
2021/04/10 10:26:22;;;;;;;9.88;6.40;;;;;;;28.40;9.24;95119.09;5096460;28;20048;-52
2021/04/10 10:28:53;;;;;;;10.10;7.10;;;;;;;28.20;9.54;95116.72;5068297;28;20067;-50
2021/04/10 10:31:30;;;;;;;10.20;6.37;;;;;;;28.50;9.59;95107.56;5080268;28;20050;-50
2021/04/10 10:34:05;;;;;;;9.57;6.38;;;;;;;28.18;10.09;95108.28;5098028;28;20048;-50
2021/04/10 10:36:36;;;;;;;10.25;6.50;;;;;;;28.23;10.33;95107.88;5098268;28;20044;-51
2021/04/10 10:39:07;;;;;;;50.03;29.40;;;;;;;28.10;8.89;95106.69;5080319;28;20059;-51
2021/04/10 10:41:46;;;;;;;31.35;26.05;;;;;;;28.76;10.26;95103.75;5077678;28;20049;-51
2021/04/10 10:44:16;;;;;;;9.30;6.35;;;;;;;28.36;8.49;95096.78;5093478;28;20048;-52
2021/04/10 10:46:44;;;;;;;10.93;7.53;;;;;;;28.46;9.26;95098.75;5097084;28;20047;-51
2021/04/10 10:49:12;;;;;;;13.02;6.53;;;;;;;28.14;8.76;95086.00;5086676;28;20040;-50
2021/04/10 10:51:42;;;;;;;8.10;6.07;;;;;;;27.89;8.17;95085.16;5084502;28;20052;-51
2021/04/10 10:54:10;;;;;;;9.68;5.75;;;;;;;27.97;9.30;95086.72;5077500;28;20047;-51
2021/04/10 10:56:37;;;;;;;9.43;6.15;;;;;;;28.12;8.72;95077.53;5077589;28;20044;-52
2021/04/10 10:59:06;;;;;;;10.23;6.70;;;;;;;27.86;9.27;95075.19;5077175;28;20040;-51
2021/04/10 11:01:39;;;;;;;10.00;6.93;;;;;;;29.12;9.49;95080.28;5077265;28;20045;-64
2021/04/10 11:04:11;;;;;;;8.15;5.45;;;;;;;28.97;9.59;95073.41;5062485;28;20462;-54
2021/04/10 11:06:42;;;;;;;10.10;6.30;;;;;;;29.15;8.25;95071.44;5097776;28;20044;-52
2021/04/10 11:09:15;;;;;;;10.75;5.93;;;;;;;28.89;8.06;95063.78;5069040;28;20059;-54
2021/04/10 11:11:44;;;;;;;12.10;6.18;;;;;;;28.71;8.12;95061.84;5097344;28;20048;-52
2021/04/10 11:14:17;;;;;;;9.30;6.25;;;;;;;28.37;8.87;95055.34;5079542;28;20040;-52
2021/04/10 11:16:55;;;;;;;14.15;11.20;;;;;;;28.96;8.17;95058.41;5079682;28;20052;-50
2021/04/10 11:19:26;;;;;;;26.40;19.58;;;;;;;28.92;8.07;95054.97;5060742;28;20075;-52
2021/04/10 11:21:54;;;;;;;8.88;5.78;;;;;;;28.57;8.24;95045.72;5091366;28;20078;-52
2021/04/10 11:24:22;;;;;;;9.68;5.60;;;;;;;28.48;9.54;95050.72;5096986;28;20055;-52
2021/04/10 11:26:54;;;;;;;8.93;5.88;;;;;;;28.30;9.25;95049.94;5079636;28;20051;-64
2021/04/10 11:29:27;;;;;;;9.30;5.43;;;;;;;28.28;8.87;95042.25;5092771;28;20051;-51
2021/04/10 11:32:12;;;;;;;8.10;5.78;;;;;;;28.76;7.65;95039.94;5096745;28;20048;-52
2021/04/10 11:34:48;;;;;;;9.48;6.03;;;;;;;27.99;7.97;95033.34;5097038;28;20071;-49
2021/04/10 11:37:18;;;;;;;7.78;5.20;;;;;;;28.07;8.45;95037.59;5078424;28;20040;-50
2021/04/10 11:39:53;;;;;;;7.90;5.45;;;;;;;28.15;8.52;95017.66;5076610;28;20497;-55